RNV weather

Cleveland Municipal Airport
Cleveland, Mississippi, United States

Public forecast

Using degrees Fahrenheit for public forecast. Weather courtesy of forecast.io.

METAR (pilot weather report)

Retrieved 2019/09/17 01:35 UTC (49 seconds ago):

KRNV 170135Z AUTO 00000KT 10SM CLR 28/20 A2999 RMK AO2 T02750196

TAF (pilot weather forecast)

Forecast is more than 12 hours old.

Closest forecast is Mid Delta Regional Airport, 20.2 nm (37.4 km) SW. Retrieved 2019/09/16 00:30 UTC (1 day ago):

TAF KGLH 162328Z 1700/1724 06004KT P6SM SKC